Главная страница
METAR-TAF:

METAR-TAF

Аэропорты :

Порт-Харкорт, Нигерия

широта: 04-51N, долгота: 007-01E, высота над уровнем моря: 18 м

Текущие метеонаблюдения

Эта сводка был подготовлена 30 минут назад, в 03:00 UTC
Штиль
Температура 26°C
Влажность 94%
Давление 1010 hPa
Видимость: 8000 м
Отдельные облака на высоте 800 фута

METAR: DNPO 240300Z 00000KT 8000 SCT008 26/25 Q1010 NOSIG

Время: 04:30 (03:30 UTC)


TAF: отсутствует

Метеонаблюдения и прогнозы для более 4000 аэропортов (сводки METAR и TAF).

Имеющиеся станции представлены на карте желтыми и красными точками.

Чтобы увидеть название станции, наведите на нее мышь.

Затем щелкните, чтобы увидеть метеонаблюдения и метеопрогнозы.

Управление картой: чтобы увеличить масштаб, щелкните зеленые кнопки с черным крестиком; чтобы уменьшить масштаб, щелкните зеленую кнопку с тире; для просмотра соседних карт щелкайте зеленые стрелки.


METAR-TAF: